Time;durP1;ratioP1;P1;durP2;ratioP2;P2;SDS_P1;SDS_P2;PMS_P1;PMS_P2;Temp;Humidity;BMP_temperature;BMP_pressure;BME280_temperature;BME280_humidity;BME280_pressure;Samples;Min_cycle;Max_cycle;Signal;HPM_P1;HPM_P2
2023/10/18 00:02:30;;;;;;;;;;;;;;;;;;6339467;27;19922;-89
2023/10/18 00:05:31;;;;;;;;;;;;;;;;;;6324973;28;19994;-88
2023/10/18 00:08:31;;;;;;;;;;;;;;;;;;6317247;28;19912;-88
2023/10/18 00:11:32;;;;;;;;;;;;;;;;;;6329776;28;19919;-88
2023/10/18 00:14:32;;;;;;;;;;;;;;;;;;6302537;28;20492;-88
2023/10/18 00:17:32;;;;;;;;;;;;;;;;;;6301540;28;19926;-87
2023/10/18 00:20:33;;;;;;;;;;;;;;;;;;6342773;28;19922;-88
2023/10/18 00:23:33;;;;;;;;;;;;;;;;;;6322489;28;19912;-88
2023/10/18 00:26:33;;;;;;;;;;;;;;;;;;6309210;27;19908;-88
2023/10/18 00:29:33;;;;;;;;;;;;;;;;;;6325512;28;19946;-87
2023/10/18 00:32:33;;;;;;;;;;;;;;;;;;6311052;28;19912;-87
2023/10/18 00:35:36;;;;;;;;;;;;;;;;;;6318165;28;19925;-87
2023/10/18 00:38:38;;;;;;;;;;;;;;;;;;6323075;28;19912;-87
2023/10/18 00:41:43;;;;;;;;;;;;;;;;;;6318613;28;19920;-87
2023/10/18 00:44:46;;;;;;;;;;;;;;;;;;6321770;28;19962;-87
2023/10/18 00:47:46;;;;;;;;;;;;;;;;;;6327290;28;19912;-87
2023/10/18 00:50:48;;;;;;;;;;;;;;;;;;6335711;28;19911;-87
2023/10/18 00:53:48;;;;;;;;;;;;;;;;;;6319980;28;19912;-87
2023/10/18 00:56:50;;;;;;;;;;;;;;;;;;6339422;27;19912;-87
2023/10/18 00:59:52;;;;;;;;;;;;;;;;;;6338754;27;19930;-87
2023/10/18 01:02:57;;;;;;;;;;;;;;;;;;6309726;28;19916;-87
2023/10/18 01:06:00;;;;;;;;;;;;;;;;;;6299301;28;19912;-88
2023/10/18 01:09:01;;;;;;;;;;;;;;;;;;6305779;28;19912;-87
2023/10/18 01:12:01;;;;;;;;;;;;;;;;;;6336110;28;20023;-87
2023/10/18 01:15:02;;;;;;;;;;;;;;;;;;6317828;28;19925;-87
2023/10/18 01:18:02;;;;;;;;;;;;;;;;;;6326812;28;19911;-87
2023/10/18 01:21:02;;;;;;;;;;;;;;;;;;6321289;28;20000;-87
2023/10/18 01:24:13;;;;;;;;;;;;;;;;;;6328551;28;19908;-87
2023/10/18 01:27:13;;;;;;;;;;;;;;;;;;6334161;28;19912;-88
2023/10/18 01:30:15;;;;;;;;;;;;;;;;;;6316751;28;19977;-87
2023/10/18 01:33:16;;;;;;;;;;;;;;;;;;6343562;28;19912;-88
2023/10/18 01:36:16;;;;;;;;;;;;;;;;;;6330468;28;20326;-87
2023/10/18 01:39:22;;;;;;;;;;;;;;;;;;6338847;28;19912;-87
2023/10/18 01:42:22;;;;;;;;;;;;;;;;;;6328219;28;19912;-88
2023/10/18 01:45:22;;;;;;;;;;;;;;;;;;6326586;28;20342;-88
2023/10/18 01:48:25;;;;;;;;;;;;;;;;;;6335821;27;19921;-88
2023/10/18 01:51:25;;;;;;;;;;;;;;;;;;6317467;28;20045;-88
2023/10/18 01:54:25;;;;;;;;;;;;;;;;;;6338265;27;19924;-87
2023/10/18 01:57:25;;;;;;;;;;;;;;;;;;6339804;28;19912;-88
2023/10/18 02:00:33;;;;;;;;;;;;;;;;;;6316746;28;19924;-87
2023/10/18 02:03:34;;;;;;;;;;;;;;;;;;6342339;27;19961;-88
2023/10/18 02:06:36;;;;;;;;;;;;;;;;;;6315742;28;19916;-87
2023/10/18 02:09:47;;;;;;;;;;;;;;;;;;6309295;28;21483;-87
2023/10/18 02:12:47;;;;;;;;;;;;;;;;;;6325566;28;19912;-87
2023/10/18 02:15:48;;;;;;;;;;;;;;;;;;6328650;28;19923;-87
2023/10/18 02:18:48;;;;;;;;;;;;;;;;;;6327910;28;19923;-87
2023/10/18 02:21:48;;;;;;;;;;;;;;;;;;6329487;28;19916;-88
2023/10/18 02:24:50;;;;;;;;;;;;;;;;;;6317035;28;19912;-87
2023/10/18 02:27:51;;;;;;;;;;;;;;;;;;6341999;27;19912;-87
2023/10/18 02:30:57;;;;;;;;;;;;;;;;;;6320970;28;19951;-87
2023/10/18 02:33:58;;;;;;;;;;;;;;;;;;6340050;28;20381;-87
2023/10/18 02:36:58;;;;;;;;;;;;;;;;;;6331098;28;19912;-86
2023/10/18 02:40:07;;;;;;;;;;;;;;;;;;6326770;28;19915;-86
2023/10/18 02:43:14;;;;;;;;;;;;;;;;;;6302328;28;19916;-85
2023/10/18 02:46:20;;;;;;;;;;;;;;;;;;6334463;28;19916;-86
2023/10/18 02:49:22;;;;;;;;;;;;;;;;;;6309489;28;20002;-86
2023/10/18 02:52:22;;;;;;;;;;;;;;;;;;6318004;28;19911;-86
2023/10/18 02:55:22;;;;;;;;;;;;;;;;;;6313760;28;19916;-86
2023/10/18 02:58:33;;;;;;;;;;;;;;;;;;6317541;28;19918;-86
2023/10/18 03:01:34;;;;;;;;;;;;;;;;;;6299158;28;20377;-86
2023/10/18 03:04:34;;;;;;;;;;;;;;;;;;6301278;28;19912;-85
2023/10/18 03:07:37;;;;;;;;;;;;;;;;;;6295705;28;19915;-86
2023/10/18 03:10:43;;;;;;;;;;;;;;;;;;6287253;28;19919;-86
2023/10/18 03:13:44;;;;;;;;;;;;;;;;;;6305422;28;20232;-85
2023/10/18 03:16:46;;;;;;;;;;;;;;;;;;6291185;28;19951;-85
2023/10/18 03:20:29;;;;;;;;;;;;;;;;;;6307252;28;20261;-85
2023/10/18 03:23:13;;;;;;;;;;;;;;;;;;6312691;28;20358;-85
2023/10/18 03:26:13;;;;;;;;;;;;;;;;;;6324435;28;19913;-85
2023/10/18 03:29:15;;;;;;;;;;;;;;;;;;6288167;28;19913;-85
2023/10/18 03:32:19;;;;;;;;;;;;;;;;;;6299054;28;19912;-85
2023/10/18 03:35:22;;;;;;;;;;;;;;;;;;6282131;28;19987;-86
2023/10/18 03:38:24;;;;;;;;;;;;;;;;;;6297670;28;19919;-85
2023/10/18 03:41:25;;;;;;;;;;;;;;;;;;6317746;28;19923;-85
2023/10/18 03:44:26;;;;;;;;;;;;;;;;;;6297552;28;19955;-85
2023/10/18 03:47:28;;;;;;;;;;;;;;;;;;6305486;28;20338;-86
2023/10/18 03:50:35;;;;;;;;;;;;;;;;;;6287959;28;19922;-85
2023/10/18 03:53:36;;;;;;;;;;;;;;;;;;6301062;28;19916;-85
2023/10/18 03:56:37;;;;;;;;;;;;;;;;;;6315087;28;19955;-85
2023/10/18 03:59:40;;;;;;;;;;;;;;;;;;6316277;27;19968;-85
2023/10/18 04:02:45;;;;;;;;;;;;;;;;;;6334294;27;19920;-85
2023/10/18 04:05:46;;;;;;;;;;;;;;;;;;6340835;28;19916;-85
2023/10/18 04:08:46;;;;;;;;;;;;;;;;;;6330149;28;19991;-85
2023/10/18 04:11:47;;;;;;;;;;;;;;;;;;6329308;28;19922;-85
2023/10/18 04:14:56;;;;;;;;;;;;;;;;;;6340363;28;19998;-85
2023/10/18 04:21:15;;;;;;;;;;;;;;;;;;6337801;28;19931;-85
2023/10/18 04:24:15;;;;;;;;;;;;;;;;;;6327757;28;19924;-86
2023/10/18 04:27:15;;;;;;;;;;;;;;;;;;6332868;28;19980;-85
2023/10/18 04:30:16;;;;;;;;;;;;;;;;;;6331083;28;19920;-85
2023/10/18 04:36:23;;;;;;;;;;;;;;;;;;6330491;28;19912;-85
2023/10/18 04:39:27;;;;;;;;;;;;;;;;;;6337271;28;20006;-85
2023/10/18 04:42:27;;;;;;;;;;;;;;;;;;6322370;28;19916;-85
2023/10/18 04:45:29;;;;;;;;;;;;;;;;;;6326619;28;20041;-86
2023/10/18 04:51:48;;;;;;;;;;;;;;;;;;6325663;28;19920;-86
2023/10/18 04:55:00;;;;;;;;;;;;;;;;;;6343593;27;20281;-87
2023/10/18 04:58:01;;;;;;;;;;;;;;;;;;6319045;28;19916;-86
2023/10/18 05:01:02;;;;;;;;;;;;;;;;;;6334454;28;19927;-86
2023/10/18 05:04:18;;;;;;;;;;;;;;;;;;6324098;28;19916;-86
2023/10/18 05:07:33;;;;;;;;;;;;;;;;;;6339872;28;19915;-87
2023/10/18 05:10:38;;;;;;;;;;;;;;;;;;6323659;28;19920;-86
2023/10/18 05:13:42;;;;;;;;;;;;;;;;;;6323838;28;19923;-87
2023/10/18 05:16:42;;;;;;;;;;;;;;;;;;6305716;28;19952;-87
2023/10/18 05:19:42;;;;;;;;;;;;;;;;;;6318934;28;19914;-87
2023/10/18 05:22:44;;;;;;;;;;;;;;;;;;6302066;28;20524;-87
2023/10/18 05:25:47;;;;;;;;;;;;;;;;;;6311230;28;19919;-87
2023/10/18 05:28:49;;;;;;;;;;;;;;;;;;6324876;28;19912;-87
2023/10/18 05:32:05;;;;;;;;;;;;;;;;;;6327767;28;19911;-87
2023/10/18 05:35:19;;;;;;;;;;;;;;;;;;6326557;28;19978;-87
2023/10/18 05:38:19;;;;;;;;;;;;;;;;;;6305449;28;20007;-87
2023/10/18 05:41:35;;;;;;;;;;;;;;;;;;6307694;28;19915;-86
2023/10/18 05:44:35;;;;;;;;;;;;;;;;;;6321315;28;20115;-87
2023/10/18 05:47:36;;;;;;;;;;;;;;;;;;6328865;28;20384;-86
2023/10/18 05:50:37;;;;;;;;;;;;;;;;;;6313342;28;19922;-87
2023/10/18 05:53:40;;;;;;;;;;;;;;;;;;6323604;28;20304;-87
2023/10/18 05:56:40;;;;;;;;;;;;;;;;;;6305812;28;19916;-87
2023/10/18 05:59:41;;;;;;;;;;;;;;;;;;6337079;28;19978;-87
2023/10/18 06:02:42;;;;;;;;;;;;;;;;;;6343196;28;20350;-87
2023/10/18 06:05:42;;;;;;;;;;;;;;;;;;6341158;27;19916;-86
2023/10/18 06:08:42;;;;;;;;;;;;;;;;;;6334915;28;20422;-87
2023/10/18 06:11:48;;;;;;;;;;;;;;;;;;6339079;28;19908;-87
2023/10/18 06:14:51;;;;;;;;;;;;;;;;;;6310766;28;19908;-87
2023/10/18 06:17:56;;;;;;;;;;;;;;;;;;6319223;28;19914;-87
2023/10/18 06:20:58;;;;;;;;;;;;;;;;;;6321709;28;19920;-88
2023/10/18 06:23:59;;;;;;;;;;;;;;;;;;6314002;28;19926;-87
2023/10/18 06:27:00;;;;;;;;;;;;;;;;;;6315364;27;19911;-88
2023/10/18 06:30:00;;;;;;;;;;;;;;;;;;6330744;27;19951;-88
2023/10/18 06:33:05;;;;;;;;;;;;;;;;;;6341442;28;19911;-88
2023/10/18 06:36:12;;;;;;;;;;;;;;;;;;6331531;28;19912;-88
2023/10/18 06:39:24;;;;;;;;;;;;;;;;;;6326214;28;19912;-89
2023/10/18 06:42:26;;;;;;;;;;;;;;;;;;6331514;28;20296;-88
2023/10/18 06:45:27;;;;;;;;;;;;;;;;;;6335602;27;19919;-89
2023/10/18 06:48:28;;;;;;;;;;;;;;;;;;6309297;27;19908;-89
2023/10/18 06:51:33;;;;;;;;;;;;;;;;;;6329857;27;19916;-88
2023/10/18 06:54:38;;;;;;;;;;;;;;;;;;6311400;27;19950;-88
2023/10/18 06:57:40;;;;;;;;;;;;;;;;;;6332412;28;19923;-88
2023/10/18 07:00:44;;;;;;;;;;;;;;;;;;6318704;27;19919;-88
2023/10/18 07:03:44;;;;;;;;;;;;;;;;;;6317117;27;20567;-88
2023/10/18 07:06:44;;;;;;;;;;;;;;;;;;6322700;28;20319;-88
2023/10/18 07:09:44;;;;;;;;;;;;;;;;;;6317138;28;19919;-88
2023/10/18 07:12:47;;;;;;;;;;;;;;;;;;6311990;27;19911;-89
2023/10/18 07:15:47;;;;;;;;;;;;;;;;;;6322927;27;19934;-89
2023/10/18 07:19:03;;;;;;;;;;;;;;;;;;6303554;28;19916;-89
2023/10/18 07:22:06;;;;;;;;;;;;;;;;;;6327952;27;19923;-90
2023/10/18 07:25:08;;;;;;;;;;;;;;;;;;6312985;28;19947;-90
2023/10/18 07:28:09;;;;;;;;;;;;;;;;;;6313054;28;20002;-86
2023/10/18 07:31:10;;;;;;;;;;;;;;;;;;6329335;28;19912;-85
2023/10/18 07:34:11;;;;;;;;;;;;;;;;;;6324088;28;19987;-86
2023/10/18 07:37:17;;;;;;;;;;;;;;;;;;6327410;28;20285;-86
2023/10/18 07:40:21;;;;;;;;;;;;;;;;;;6330545;28;19916;-86
2023/10/18 07:43:21;;;;;;;;;;;;;;;;;;6337498;28;19923;-85
2023/10/18 07:46:24;;;;;;;;;;;;;;;;;;6317346;28;19915;-85
2023/10/18 07:49:24;;;;;;;;;;;;;;;;;;6313146;28;19912;-86
2023/10/18 07:52:24;;;;;;;;;;;;;;;;;;6319580;28;19973;-86
2023/10/18 07:55:27;;;;;;;;;;;;;;;;;;6327904;28;19920;-85
2023/10/18 07:58:32;;;;;;;;;;;;;;;;;;6334679;27;19924;-85
2023/10/18 08:01:46;;;;;;;;;;;;;;;;;;6317754;28;19927;-86
2023/10/18 08:04:47;;;;;;;;;;;;;;;;;;6324612;28;19912;-86
2023/10/18 08:07:51;;;;;;;;;;;;;;;;;;6337095;28;19980;-86
2023/10/18 08:10:54;;;;;;;;;;;;;;;;;;6320874;28;20301;-86
2023/10/18 08:13:56;;;;;;;;;;;;;;;;;;6310214;28;19912;-86
2023/10/18 08:16:56;;;;;;;;;;;;;;;;;;6309327;28;19912;-86
2023/10/18 08:19:58;;;;;;;;;;;;;;;;;;6328682;27;19916;-86
2023/10/18 08:23:14;;;;;;;;;;;;;;;;;;6308691;28;20010;-86
2023/10/18 08:26:14;;;;;;;;;;;;;;;;;;6304694;28;19912;-86
2023/10/18 08:29:14;;;;;;;;;;;;;;;;;;6321252;28;20271;-89
2023/10/18 08:32:14;;;;;;;;;;;;;;;;;;6321960;28;20393;-88
2023/10/18 08:35:18;;;;;;;;;;;;;;;;;;6304919;28;20006;-89
2023/10/18 08:38:18;;;;;;;;;;;;;;;;;;6330057;28;19960;-86
2023/10/18 08:41:21;;;;;;;;;;;;;;;;;;6323365;28;19920;-86
2023/10/18 08:44:25;;;;;;;;;;;;;;;;;;6305992;28;19967;-86
2023/10/18 08:47:39;;;;;;;;;;;;;;;;;;6314269;28;19911;-87
2023/10/18 08:50:40;;;;;;;;;;;;;;;;;;6338383;28;19911;-87
2023/10/18 08:53:41;;;;;;;;;;;;;;;;;;6304142;28;19912;-86
2023/10/18 08:56:41;;;;;;;;;;;;;;;;;;6311090;28;20488;-86
2023/10/18 08:59:46;;;;;;;;;;;;;;;;;;6323370;28;19920;-86
2023/10/18 09:02:46;;;;;;;;;;;;;;;;;;6324528;28;19920;-87
2023/10/18 09:05:48;;;;;;;;;;;;;;;;;;6304935;28;20005;-86
2023/10/18 09:09:00;;;;;;;;;;;;;;;;;;6315865;28;19912;-87
2023/10/18 09:12:05;;;;;;;;;;;;;;;;;;6338142;28;19916;-87
2023/10/18 09:18:30;;;;;;;;;;;;;;;;;;6323962;28;20286;-87
2023/10/18 09:21:36;;;;;;;;;;;;;;;;;;6324529;28;19916;-86
2023/10/18 09:24:43;;;;;;;;;;;;;;;;;;6331849;28;20027;-86
2023/10/18 09:27:45;;;;;;;;;;;;;;;;;;6323385;28;19912;-87
2023/10/18 09:30:45;;;;;;;;;;;;;;;;;;6314432;28;19912;-87
2023/10/18 09:33:52;;;;;;;;;;;;;;;;;;6313326;28;19912;-86
2023/10/18 09:36:52;;;;;;;;;;;;;;;;;;6311359;28;19955;-86
2023/10/18 09:39:56;;;;;;;;;;;;;;;;;;6324211;28;20275;-86
2023/10/18 09:42:56;;;;;;;;;;;;;;;;;;6332226;28;19927;-85
2023/10/18 09:45:59;;;;;;;;;;;;;;;;;;6332992;28;20027;-86
2023/10/18 09:48:59;;;;;;;;;;;;;;;;;;6338257;27;19965;-87
2023/10/18 09:52:03;;;;;;;;;;;;;;;;;;6305903;28;19920;-87
2023/10/18 09:55:04;;;;;;;;;;;;;;;;;;6315247;28;19938;-87
2023/10/18 09:58:04;;;;;;;;;;;;;;;;;;6328464;28;19918;-87
2023/10/18 10:01:13;;;;;;;;;;;;;;;;;;6333240;28;20547;-87
2023/10/18 10:04:14;;;;;;;;;;;;;;;;;;6308797;28;20297;-87
2023/10/18 10:10:50;;;;;;;;;;;;;;;;;;6290088;28;19923;-87
2023/10/18 10:13:50;;;;;;;;;;;;;;;;;;6316002;28;19969;-87
2023/10/18 10:16:54;;;;;;;;;;;;;;;;;;6322242;28;19912;-87
2023/10/18 10:19:54;;;;;;;;;;;;;;;;;;6351363;28;19961;-87
2023/10/18 10:22:54;;;;;;;;;;;;;;;;;;6328212;27;19916;-87
2023/10/18 10:25:55;;;;;;;;;;;;;;;;;;6312303;28;19947;-86
2023/10/18 10:32:05;;;;;;;;;;;;;;;;;;6339827;27;19995;-87
2023/10/18 10:35:05;;;;;;;;;;;;;;;;;;6328079;28;19907;-87
2023/10/18 10:38:18;;;;;;;;;;;;;;;;;;6324121;28;19998;-88
2023/10/18 10:41:21;;;;;;;;;;;;;;;;;;6325719;28;19923;-87
2023/10/18 10:44:30;;;;;;;;;;;;;;;;;;6343120;28;19918;-87
2023/10/18 10:47:30;;;;;;;;;;;;;;;;;;6329483;28;19908;-86
2023/10/18 10:50:30;;;;;;;;;;;;;;;;;;6339224;27;19934;-86
2023/10/18 10:53:31;;;;;;;;;;;;;;;;;;6343689;28;19907;-86
2023/10/18 10:56:33;;;;;;;;;;;;;;;;;;6346262;27;19923;-85
2023/10/18 10:59:33;;;;;;;;;;;;;;;;;;6345388;27;19941;-87
2023/10/18 11:02:34;;;;;;;;;;;;;;;;;;6343490;28;19920;-87
2023/10/18 11:05:37;;;;;;;;;;;;;;;;;;6339718;28;19912;-87
2023/10/18 11:08:37;;;;;;;;;;;;;;;;;;6329223;28;19916;-87
2023/10/18 11:11:39;;;;;;;;;;;;;;;;;;6332283;28;19915;-86
2023/10/18 11:14:41;;;;;;;;;;;;;;;;;;6306915;28;19949;-87
2023/10/18 11:17:44;;;;;;;;;;;;;;;;;;6336944;28;20413;-87
2023/10/18 11:24:10;;;;;;;;;;;;;;;;;;6340190;28;19911;-87
2023/10/18 11:27:10;;;;;;;;;;;;;;;;;;6331116;27;19913;-87
2023/10/18 11:30:22;;;;;;;;;;;;;;;;;;6310686;28;19916;-87
2023/10/18 11:33:22;;;;;;;;;;;;;;;;;;6331791;28;19916;-86
2023/10/18 11:36:27;;;;;;;;;;;;;;;;;;6307281;28;20015;-87
2023/10/18 11:39:32;;;;;;;;;;;;;;;;;;6309939;28;19916;-87
2023/10/18 11:42:33;;;;;;;;;;;;;;;;;;6307751;28;19920;-87
2023/10/18 11:45:36;;;;;;;;;;;;;;;;;;6312983;28;19939;-87
2023/10/18 11:48:36;;;;;;;;;;;;;;;;;;6308440;27;19916;-87
2023/10/18 11:51:37;;;;;;;;;;;;;;;;;;6322209;28;19954;-87
2023/10/18 11:54:37;;;;;;;;;;;;;;;;;;6334135;28;19912;-87
2023/10/18 11:57:39;;;;;;;;;;;;;;;;;;6301356;28;19912;-85
2023/10/18 12:00:47;;;;;;;;;;;;;;;;;;6308171;27;19973;-85
2023/10/18 12:03:48;;;;;;;;;;;;;;;;;;6330483;27;19912;-85
2023/10/18 12:06:50;;;;;;;;;;;;;;;;;;6341055;28;19941;-85
2023/10/18 12:09:55;;;;;;;;;;;;;;;;;;6334306;28;19919;-84
2023/10/18 12:12:55;;;;;;;;;;;;;;;;;;6338894;28;19920;-85
2023/10/18 12:16:00;;;;;;;;;;;;;;;;;;6327972;28;19919;-85
2023/10/18 12:19:00;;;;;;;;;;;;;;;;;;6338701;27;19918;-85
2023/10/18 12:22:00;;;;;;;;;;;;;;;;;;6325543;28;19916;-84
2023/10/18 12:25:01;;;;;;;;;;;;;;;;;;6333726;28;20362;-84
2023/10/18 12:28:02;;;;;;;;;;;;;;;;;;6342815;27;19916;-85
2023/10/18 12:31:09;;;;;;;;;;;;;;;;;;6348379;28;19933;-85
2023/10/18 12:34:14;;;;;;;;;;;;;;;;;;6365330;27;20279;-85
2023/10/18 12:37:14;;;;;;;;;;;;;;;;;;6356300;27;20030;-85
2023/10/18 12:41:00;;;;;;;;;;;;;;;;;;6316700;28;19924;-86
2023/10/18 12:43:44;;;;;;;;;;;;;;;;;;6321754;28;20456;-86
2023/10/18 12:46:44;;;;;;;;;;;;;;;;;;6327744;28;19961;-86
2023/10/18 12:49:44;;;;;;;;;;;;;;;;;;6334096;27;20302;-85
2023/10/18 12:52:45;;;;;;;;;;;;;;;;;;6315996;28;20003;-86
2023/10/18 12:55:45;;;;;;;;;;;;;;;;;;6337524;28;19950;-85
2023/10/18 12:58:57;;;;;;;;;;;;;;;;;;6321486;28;19963;-86
2023/10/18 13:02:03;;;;;;;;;;;;;;;;;;6314923;28;19930;-85
2023/10/18 13:05:03;;;;;;;;;;;;;;;;;;6342557;28;19919;-86
2023/10/18 13:08:15;;;;;;;;;;;;;;;;;;6314988;28;19919;-86
2023/10/18 13:14:17;;;;;;;;;;;;;;;;;;6335312;28;19935;-85
2023/10/18 13:17:18;;;;;;;;;;;;;;;;;;6322932;28;19998;-86
2023/10/18 13:20:24;;;;;;;;;;;;;;;;;;6344323;28;19977;-86
2023/10/18 13:23:27;;;;;;;;;;;;;;;;;;6318011;28;20327;-86
2023/10/18 13:26:28;;;;;;;;;;;;;;;;;;6335865;28;19912;-86
2023/10/18 13:32:29;;;;;;;;;;;;;;;;;;6321477;28;19922;-85
2023/10/18 13:35:29;;;;;;;;;;;;;;;;;;6337490;28;19927;-86
2023/10/18 13:38:29;;;;;;;;;;;;;;;;;;6321106;28;19998;-86
2023/10/18 13:41:29;;;;;;;;;;;;;;;;;;6328844;28;19943;-86
2023/10/18 13:44:30;;;;;;;;;;;;;;;;;;6312764;28;20018;-86
2023/10/18 13:47:33;;;;;;;;;;;;;;;;;;6300699;28;21337;-86
2023/10/18 13:50:33;;;;;;;;;;;;;;;;;;6325228;28;20565;-86
2023/10/18 13:53:34;;;;;;;;;;;;;;;;;;6321427;28;19919;-85
2023/10/18 13:56:37;;;;;;;;;;;;;;;;;;6333989;28;20453;-86
2023/10/18 13:59:38;;;;;;;;;;;;;;;;;;6309576;28;20328;-86
2023/10/18 14:02:38;;;;;;;;;;;;;;;;;;6328871;28;19920;-86
2023/10/18 14:05:40;;;;;;;;;;;;;;;;;;6307868;28;19935;-86
2023/10/18 14:08:43;;;;;;;;;;;;;;;;;;6332556;28;19927;-86
2023/10/18 14:11:43;;;;;;;;;;;;;;;;;;6322817;28;20635;-86
2023/10/18 14:14:44;;;;;;;;;;;;;;;;;;6308866;28;19920;-85
2023/10/18 14:17:44;;;;;;;;;;;;;;;;;;6327319;28;19919;-88
2023/10/18 14:20:50;;;;;;;;;;;;;;;;;;6306977;28;19920;-88
2023/10/18 14:23:54;;;;;;;;;;;;;;;;;;6334864;28;19924;-88
2023/10/18 14:26:54;;;;;;;;;;;;;;;;;;6336921;27;19915;-86
2023/10/18 14:29:54;;;;;;;;;;;;;;;;;;6328349;28;19916;-86
2023/10/18 14:32:59;;;;;;;;;;;;;;;;;;6323999;28;20343;-86
2023/10/18 14:35:59;;;;;;;;;;;;;;;;;;6310364;28;19942;-86
2023/10/18 14:38:59;;;;;;;;;;;;;;;;;;6333669;28;19912;-86
2023/10/18 14:41:59;;;;;;;;;;;;;;;;;;6324589;28;19920;-86
2023/10/18 14:44:59;;;;;;;;;;;;;;;;;;6323902;28;19973;-86
2023/10/18 14:47:59;;;;;;;;;;;;;;;;;;6316960;28;20367;-86
2023/10/18 14:50:59;;;;;;;;;;;;;;;;;;6334440;28;19912;-86
2023/10/18 14:53:59;;;;;;;;;;;;;;;;;;6331619;28;19919;-86
2023/10/18 14:57:00;;;;;;;;;;;;;;;;;;6327035;28;19920;-86
2023/10/18 15:00:00;;;;;;;;;;;;;;;;;;6305101;28;19923;-86
2023/10/18 15:03:00;;;;;;;;;;;;;;;;;;6322173;28;19926;-86
2023/10/18 15:06:01;;;;;;;;;;;;;;;;;;6328125;28;20380;-85
2023/10/18 15:09:02;;;;;;;;;;;;;;;;;;6317644;27;19916;-86
2023/10/18 15:12:02;;;;;;;;;;;;;;;;;;6332556;27;19915;-86
2023/10/18 15:15:02;;;;;;;;;;;;;;;;;;6326264;28;19934;-85
2023/10/18 15:18:03;;;;;;;;;;;;;;;;;;6315964;28;19964;-86
2023/10/18 15:21:04;;;;;;;;;;;;;;;;;;6329449;28;19923;-85
2023/10/18 15:24:04;;;;;;;;;;;;;;;;;;6328734;28;19915;-85
2023/10/18 15:27:04;;;;;;;;;;;;;;;;;;6339056;27;19915;-85
2023/10/18 15:30:07;;;;;;;;;;;;;;;;;;6334280;28;20435;-85
2023/10/18 15:33:09;;;;;;;;;;;;;;;;;;6329313;28;19912;-85
2023/10/18 15:36:09;;;;;;;;;;;;;;;;;;6319619;28;19951;-86
2023/10/18 15:39:09;;;;;;;;;;;;;;;;;;6327281;28;19922;-85
2023/10/18 15:42:09;;;;;;;;;;;;;;;;;;6326514;28;19931;-85
2023/10/18 15:45:13;;;;;;;;;;;;;;;;;;6328479;27;19912;-85
2023/10/18 15:48:13;;;;;;;;;;;;;;;;;;6336876;27;20679;-85
2023/10/18 15:51:14;;;;;;;;;;;;;;;;;;6310364;28;20347;-85
2023/10/18 15:54:14;;;;;;;;;;;;;;;;;;6328347;28;19920;-85
2023/10/18 15:57:14;;;;;;;;;;;;;;;;;;6331003;28;19912;-85
2023/10/18 16:00:24;;;;;;;;;;;;;;;;;;6315036;28;19924;-85
2023/10/18 16:03:24;;;;;;;;;;;;;;;;;;6313695;28;19916;-85
2023/10/18 16:06:24;;;;;;;;;;;;;;;;;;6304679;28;19919;-85
2023/10/18 16:09:27;;;;;;;;;;;;;;;;;;6315540;28;19965;-85
2023/10/18 16:12:27;;;;;;;;;;;;;;;;;;6315944;28;20277;-85
2023/10/18 16:15:34;;;;;;;;;;;;;;;;;;6327035;27;19919;-85
2023/10/18 16:18:37;;;;;;;;;;;;;;;;;;6327891;27;20392;-85
2023/10/18 16:21:37;;;;;;;;;;;;;;;;;;6340920;27;19955;-85
2023/10/18 16:24:38;;;;;;;;;;;;;;;;;;6333933;27;19912;-85
2023/10/18 16:27:38;;;;;;;;;;;;;;;;;;6318358;27;19912;-85
2023/10/18 16:30:40;;;;;;;;;;;;;;;;;;6306579;28;19923;-85
2023/10/18 16:33:40;;;;;;;;;;;;;;;;;;6332845;27;19916;-85
2023/10/18 16:36:40;;;;;;;;;;;;;;;;;;6305508;28;20370;-85
2023/10/18 16:39:40;;;;;;;;;;;;;;;;;;6326185;28;19916;-85
2023/10/18 16:42:41;;;;;;;;;;;;;;;;;;6309979;28;19968;-85
2023/10/18 16:45:41;;;;;;;;;;;;;;;;;;6330604;27;19916;-85
2023/10/18 16:48:41;;;;;;;;;;;;;;;;;;6327911;28;19998;-88
2023/10/18 16:51:41;;;;;;;;;;;;;;;;;;6327967;28;19918;-89
2023/10/18 16:54:41;;;;;;;;;;;;;;;;;;6328357;28;20358;-89
2023/10/18 16:57:41;;;;;;;;;;;;;;;;;;6338189;28;20061;-89
2023/10/18 17:00:41;;;;;;;;;;;;;;;;;;6333755;27;19920;-88
2023/10/18 17:03:42;;;;;;;;;;;;;;;;;;6325567;28;19927;-89
2023/10/18 17:06:42;;;;;;;;;;;;;;;;;;6315812;28;19938;-89
2023/10/18 17:09:45;;;;;;;;;;;;;;;;;;6300785;28;19954;-89
2023/10/18 17:12:45;;;;;;;;;;;;;;;;;;6331904;28;19916;-89
2023/10/18 17:15:46;;;;;;;;;;;;;;;;;;6307933;28;19923;-89
2023/10/18 17:18:46;;;;;;;;;;;;;;;;;;6298890;28;19912;-89
2023/10/18 17:21:46;;;;;;;;;;;;;;;;;;6309100;28;20413;-89
2023/10/18 17:24:46;;;;;;;;;;;;;;;;;;6308557;28;19967;-89
2023/10/18 17:27:47;;;;;;;;;;;;;;;;;;6326990;28;20015;-89
2023/10/18 17:30:47;;;;;;;;;;;;;;;;;;6311443;28;19911;-89
2023/10/18 17:33:47;;;;;;;;;;;;;;;;;;6313830;28;19947;-89
2023/10/18 17:36:49;;;;;;;;;;;;;;;;;;6315492;28;19918;-89
2023/10/18 17:39:50;;;;;;;;;;;;;;;;;;6326819;28;19956;-89
2023/10/18 17:42:50;;;;;;;;;;;;;;;;;;6334191;28;19930;-89
2023/10/18 17:45:50;;;;;;;;;;;;;;;;;;6334211;28;19938;-89
2023/10/18 17:48:52;;;;;;;;;;;;;;;;;;6333785;28;19965;-85
2023/10/18 17:51:52;;;;;;;;;;;;;;;;;;6317922;28;19968;-86
2023/10/18 17:54:52;;;;;;;;;;;;;;;;;;6308922;28;19912;-85
2023/10/18 17:57:57;;;;;;;;;;;;;;;;;;6310963;28;19931;-85
2023/10/18 18:00:58;;;;;;;;;;;;;;;;;;6344316;27;20404;-85
2023/10/18 18:03:58;;;;;;;;;;;;;;;;;;6333363;27;19955;-85
2023/10/18 18:06:58;;;;;;;;;;;;;;;;;;6331346;28;20435;-85
2023/10/18 18:09:58;;;;;;;;;;;;;;;;;;6339626;28;19943;-85
2023/10/18 18:12:59;;;;;;;;;;;;;;;;;;6331588;28;20007;-85
2023/10/18 18:16:02;;;;;;;;;;;;;;;;;;6338500;28;19912;-85
2023/10/18 18:19:03;;;;;;;;;;;;;;;;;;6328291;27;19916;-85
2023/10/18 18:22:03;;;;;;;;;;;;;;;;;;6331358;28;19919;-85
2023/10/18 18:25:03;;;;;;;;;;;;;;;;;;6312877;28;20031;-85
2023/10/18 18:28:03;;;;;;;;;;;;;;;;;;6313863;28;20011;-85
2023/10/18 18:31:04;;;;;;;;;;;;;;;;;;6315437;28;19964;-85
2023/10/18 18:34:04;;;;;;;;;;;;;;;;;;6337513;28;19960;-85
2023/10/18 18:37:04;;;;;;;;;;;;;;;;;;6315147;28;19916;-86
2023/10/18 18:40:07;;;;;;;;;;;;;;;;;;6329254;28;20223;-85
2023/10/18 18:43:07;;;;;;;;;;;;;;;;;;6324934;28;19915;-84
2023/10/18 18:46:09;;;;;;;;;;;;;;;;;;6317748;28;20293;-84
2023/10/18 18:49:10;;;;;;;;;;;;;;;;;;6318945;28;19916;-84
2023/10/18 18:52:10;;;;;;;;;;;;;;;;;;6334974;28;19916;-84
2023/10/18 18:55:10;;;;;;;;;;;;;;;;;;6339443;28;20006;-84
2023/10/18 18:58:10;;;;;;;;;;;;;;;;;;6343389;28;20492;-84
2023/10/18 19:01:10;;;;;;;;;;;;;;;;;;6331993;27;20250;-84
2023/10/18 19:04:10;;;;;;;;;;;;;;;;;;6316579;28;19916;-84
2023/10/18 19:07:11;;;;;;;;;;;;;;;;;;6340451;28;20251;-94
2023/10/18 19:10:14;;;;;;;;;;;;;;;;;;6324281;28;19911;-93
2023/10/18 19:13:14;;;;;;;;;;;;;;;;;;6332333;27;19998;-93
2023/10/18 19:16:14;;;;;;;;;;;;;;;;;;6331088;27;20358;-93
2023/10/18 19:19:15;;;;;;;;;;;;;;;;;;6326427;28;19912;-92
2023/10/18 19:22:17;;;;;;;;;;;;;;;;;;6337656;28;20011;-93
2023/10/18 19:25:17;;;;;;;;;;;;;;;;;;6317637;28;20389;-92
2023/10/18 19:28:17;;;;;;;;;;;;;;;;;;6314238;28;19912;-92
2023/10/18 19:31:18;;;;;;;;;;;;;;;;;;6325769;28;20388;-93
2023/10/18 19:34:18;;;;;;;;;;;;;;;;;;6312442;28;20010;-92
2023/10/18 19:37:19;;;;;;;;;;;;;;;;;;6315418;28;19912;-92
2023/10/18 19:40:20;;;;;;;;;;;;;;;;;;6336948;27;19916;-92
2023/10/18 19:43:20;;;;;;;;;;;;;;;;;;6310405;28;20007;-92
2023/10/18 19:46:21;;;;;;;;;;;;;;;;;;6328944;28;20324;-92
2023/10/18 19:49:21;;;;;;;;;;;;;;;;;;6316050;28;19912;-91
2023/10/18 19:52:21;;;;;;;;;;;;;;;;;;6313323;28;20271;-92
2023/10/18 19:55:21;;;;;;;;;;;;;;;;;;6308406;28;19912;-92
2023/10/18 19:58:21;;;;;;;;;;;;;;;;;;6343198;28;19912;-92
2023/10/18 20:01:21;;;;;;;;;;;;;;;;;;6340594;27;20465;-92
2023/10/18 20:04:21;;;;;;;;;;;;;;;;;;6330200;28;19980;-92
2023/10/18 20:07:22;;;;;;;;;;;;;;;;;;6340942;28;19912;-92
2023/10/18 20:10:22;;;;;;;;;;;;;;;;;;6319796;28;19940;-92
2023/10/18 20:13:26;;;;;;;;;;;;;;;;;;6306361;28;19959;-92
2023/10/18 20:16:26;;;;;;;;;;;;;;;;;;6326116;28;20408;-91
2023/10/18 20:19:26;;;;;;;;;;;;;;;;;;6331950;28;20495;-83
2023/10/18 20:22:26;;;;;;;;;;;;;;;;;;6313618;28;19920;-83
2023/10/18 20:25:26;;;;;;;;;;;;;;;;;;6327412;28;19923;-83
2023/10/18 20:28:26;;;;;;;;;;;;;;;;;;6307509;28;19928;-83
2023/10/18 20:31:26;;;;;;;;;;;;;;;;;;6306113;28;19912;-83
2023/10/18 20:34:27;;;;;;;;;;;;;;;;;;6301989;28;19978;-83
2023/10/18 20:37:27;;;;;;;;;;;;;;;;;;6330029;28;20404;-83
2023/10/18 20:40:27;;;;;;;;;;;;;;;;;;6298756;28;19919;-83
2023/10/18 20:43:30;;;;;;;;;;;;;;;;;;6305094;28;19915;-83
2023/10/18 20:46:31;;;;;;;;;;;;;;;;;;6291505;28;19916;-83
2023/10/18 20:49:32;;;;;;;;;;;;;;;;;;6321977;28;19961;-83
2023/10/18 20:52:32;;;;;;;;;;;;;;;;;;6299367;28;19912;-84
2023/10/18 20:55:32;;;;;;;;;;;;;;;;;;6340789;28;19908;-83
2023/10/18 20:58:33;;;;;;;;;;;;;;;;;;6337864;28;19973;-84
2023/10/18 21:01:40;;;;;;;;;;;;;;;;;;6335460;27;20451;-84
2023/10/18 21:04:44;;;;;;;;;;;;;;;;;;6317250;28;20526;-84
2023/10/18 21:07:44;;;;;;;;;;;;;;;;;;6322389;28;20026;-84
2023/10/18 21:10:44;;;;;;;;;;;;;;;;;;6324017;28;19917;-84
2023/10/18 21:13:45;;;;;;;;;;;;;;;;;;6298941;28;20416;-84